King Salmon Airport
PAKN : now visible

Aeroporto :











RITROVATECI SU...

 
LOGIN :

Iscrizione | Disclaimer

   EN    FR    IT 

 









Sommario :    VFR   VFR Marginale   IFR   IFR Intensivo   IFR Molto Intensivo
Visibilità : 
Base nubi : 
>= 8 km
>= 3000ft
5 / 8 km
1000 / 3000 ft
1500m / 5 km
500 / 1000 ft
800 / 1500m
200 / 500 ft
< 800m
< 200 ft
Simboli :   Temporali  Nebbia  Neve Forte  Precipitazioni Forti  Vento > 20 kt






- Altitudine del aeroporto : 73 ft
- Codice IATA : AKN


PAKN - King Salmon

ULTIMO METAR :
  • 011954Z 10016G28KT 10SM SCT060 14/03 A2943 RMK AO2 PK WND 09034/1928 SLP965 T01390028

METARs OBSOLETI :
  • 011854Z 08021G31KT 9SM CLR 13/03 A2943 RMK AO2 PK WND 08031/1853 SLP964 T01330028
  • 011754Z 08018G26KT 10SM CLR 12/03 A2943 RMK AO2 PK WND 08026/1737 SLP964 T01220028 10122 20072 52001

TAF PAKN
Valido dal 01 a 18 ore il 02 a 18 ore UTC


011728Z 0118/0218 09015G25KT P6SM SCT060 BKN090
FM020000 09015G25KT P6SM VCSH BKN050
FM020900 07007KT P6SM BKN100
FIR PAZA / America del Nord



MetMap, La meteo Aeronautica in un colpo d'occhio ! - Copyright ORBIFLY Dicembre 2007 - Disclaimer

ORBIFLY MET'MAP TEAM :

Programmazione e sviluppo : Alexandra Zaïnal
Concezione : Baudouin d'Aumeries
Aiuto per la programmazione : Marc-Olivier Méhu
Supporto tecnico e logistico : Manuel Goepfert
Aiuto per la traduzione : Arnaldo La Scala

Contatto : metmap@orbifly.com




FONTI E CREDITI :

   NOAA       Earth
Advisory